createdAt,value
2023-03-23T15:59:41.643Z,8.02
2023-03-23T16:02:46.400Z,5.60
2023-03-23T16:05:48.666Z,3.10
2023-03-23T16:08:54.265Z,4.45
2023-03-23T16:11:57.431Z,4.50
2023-03-23T16:14:59.692Z,4.25
2023-03-23T16:18:02.017Z,3.83
2023-03-23T16:21:04.640Z,3.92
2023-03-23T16:24:08.211Z,4.40
2023-03-23T16:27:11.210Z,4.77
2023-03-23T16:30:17.141Z,4.60
2023-03-23T16:33:19.440Z,3.47
2023-03-23T16:36:21.650Z,4.73
2023-03-23T16:39:23.998Z,3.17
2023-03-23T16:42:26.162Z,2.95
2023-03-23T16:45:28.437Z,2.80
2023-03-23T16:48:30.836Z,3.88
2023-03-23T16:51:33.130Z,4.13
2023-03-23T16:54:35.247Z,3.78
2023-03-23T16:57:38.305Z,2.63
2023-03-23T17:00:41.397Z,2.95
2023-03-23T17:03:44.098Z,3.92
2023-03-23T17:06:46.744Z,5.13
2023-03-23T17:09:49.159Z,5.43
2023-03-23T17:12:51.399Z,4.47
2023-03-23T17:15:56.547Z,5.28
2023-03-23T17:18:58.926Z,5.78
2023-03-23T17:22:01.179Z,3.95
2023-03-23T17:25:03.779Z,3.90
2023-03-23T17:28:06.967Z,3.43
2023-03-23T17:31:09.558Z,5.45
2023-03-23T17:34:11.757Z,7.32
2023-03-23T17:37:13.926Z,5.00
2023-03-23T17:40:16.438Z,5.97
2023-03-23T17:43:18.629Z,5.13
2023-03-23T17:46:21.112Z,5.00
2023-03-23T17:49:24.090Z,4.82
2023-03-23T17:52:26.355Z,6.00
2023-03-23T17:55:28.624Z,4.47
2023-03-23T17:58:31.115Z,3.73
2023-03-23T18:01:33.578Z,7.35
2023-03-23T18:04:35.947Z,5.88
2023-03-23T18:07:38.209Z,3.70
2023-03-23T18:10:41.355Z,6.55
2023-03-23T18:13:43.582Z,7.97
2023-03-23T18:16:46.101Z,5.97
2023-03-23T18:19:48.352Z,9.35
2023-03-23T18:22:50.629Z,9.82
2023-03-23T18:25:56.316Z,6.68
2023-03-23T18:28:58.521Z,6.33
2023-03-23T18:32:00.752Z,8.27
2023-03-23T18:35:04.255Z,8.32
2023-03-23T18:38:06.750Z,10.37
2023-03-23T18:41:09.918Z,7.30
2023-03-23T18:44:12.123Z,9.00
2023-03-23T18:47:14.377Z,7.13
2023-03-23T18:50:16.592Z,8.07
2023-03-23T18:53:20.004Z,8.57
2023-03-23T18:56:23.057Z,6.70
2023-03-23T18:59:25.926Z,7.93
2023-03-23T19:02:28.289Z,8.02
2023-03-23T19:05:30.911Z,8.38
2023-03-23T19:08:34.826Z,8.57
2023-03-23T19:11:37.100Z,12.80
2023-03-23T19:14:42.652Z,6.38
2023-03-23T19:17:45.456Z,9.10
2023-03-23T19:21:12.501Z,14.88
2023-03-23T19:24:12.899Z,11.27
2023-03-23T19:27:15.541Z,12.82
2023-03-23T19:30:18.820Z,10.80
2023-03-23T19:33:21.346Z,10.52
2023-03-23T19:36:24.425Z,8.82
2023-03-23T19:39:26.757Z,8.93
2023-03-23T19:42:28.966Z,10.43
2023-03-23T19:45:31.898Z,10.07
2023-03-23T19:51:36.606Z,9.63
2023-03-23T19:54:39.919Z,10.40
2023-03-23T19:57:43.487Z,11.65
2023-03-23T20:00:46.123Z,11.50
2023-03-23T20:03:48.441Z,10.02
2023-03-23T20:06:51.471Z,11.23
2023-03-23T20:09:53.792Z,10.03
2023-03-23T20:12:56.026Z,10.23
2023-03-23T20:16:00.701Z,12.10
2023-03-23T20:19:05.037Z,11.35
2023-03-23T20:22:08.015Z,8.27
2023-03-23T20:25:10.401Z,8.50
2023-03-23T20:28:12.663Z,9.50
2023-03-23T20:31:24.315Z,11.43
2023-03-23T20:34:31.180Z,12.15
2023-03-23T20:37:34.484Z,12.38
2023-03-23T20:40:36.778Z,12.57
2023-03-23T20:43:40.282Z,9.07
2023-03-23T20:46:43.891Z,11.45
2023-03-23T20:49:53.206Z,10.55
2023-03-23T20:52:56.810Z,9.43
2023-03-23T20:56:02.012Z,12.23
2023-03-23T20:59:05.634Z,14.07
2023-03-23T21:02:10.499Z,13.63
2023-03-23T21:05:12.685Z,14.90
2023-03-23T21:08:14.980Z,10.93
2023-03-23T21:11:19.456Z,12.70
2023-03-23T21:14:21.739Z,12.32
2023-03-23T21:17:23.929Z,11.23
2023-03-23T21:20:27.082Z,12.48
2023-03-23T21:23:29.732Z,15.43
2023-03-23T21:26:32.235Z,13.95
2023-03-23T21:29:34.426Z,18.00
2023-03-23T21:32:36.678Z,13.27
2023-03-23T21:35:39.887Z,20.20
2023-03-23T21:38:42.192Z,20.83
2023-03-23T21:41:45.050Z,16.53
2023-03-23T21:44:48.647Z,16.85
2023-03-23T21:47:57.789Z,15.02
2023-03-23T21:51:08.549Z,14.32
2023-03-23T21:54:11.717Z,14.50
2023-03-23T21:57:14.331Z,12.85
2023-03-23T22:00:18.882Z,12.02
2023-03-23T22:03:23.608Z,18.13
2023-03-23T22:06:28.524Z,20.42
2023-03-23T22:09:31.153Z,12.63
2023-03-23T22:12:33.495Z,16.57
2023-03-23T22:15:36.250Z,14.27
2023-03-23T22:18:38.998Z,14.13
2023-03-23T22:21:41.902Z,13.40
2023-03-23T22:24:44.228Z,15.07
2023-03-23T22:27:49.708Z,14.70
2023-03-23T22:30:53.896Z,14.88
2023-03-23T22:33:57.411Z,12.53
2023-03-23T22:36:59.749Z,14.35
2023-03-23T22:40:02.125Z,12.68
2023-03-23T22:43:04.411Z,14.77
2023-03-23T22:46:07.271Z,13.27
2023-03-23T22:49:09.866Z,14.43
2023-03-23T22:52:12.315Z,15.43
2023-03-23T22:55:14.556Z,16.10
2023-03-23T22:58:17.304Z,13.80
2023-03-23T23:01:21.558Z,17.13
2023-03-23T23:04:24.289Z,16.00
2023-03-23T23:07:26.531Z,16.75
2023-03-23T23:10:28.900Z,11.82
2023-03-23T23:13:33.098Z,12.73
2023-03-23T23:16:35.747Z,13.88
2023-03-23T23:19:38.097Z,15.77
2023-03-23T23:22:41.003Z,14.73
2023-03-23T23:25:44.513Z,15.20
2023-03-23T23:28:48.259Z,14.05
2023-03-23T23:31:50.384Z,13.95
2023-03-23T23:34:52.787Z,14.97
2023-03-23T23:37:55.330Z,19.48
2023-03-23T23:40:57.510Z,15.23
2023-03-23T23:44:00.194Z,16.23
2023-03-23T23:47:02.625Z,14.63
2023-03-23T23:50:07.281Z,15.45
2023-03-23T23:53:10.942Z,16.60
2023-03-23T23:56:13.899Z,16.25
2023-03-23T23:59:16.480Z,17.48
